createdAt,value
2019-04-01T00:04:22.045Z,99.90
2019-04-01T00:07:05.954Z,99.90
2019-04-01T00:09:57.342Z,99.90
2019-04-01T00:12:42.537Z,99.90
2019-04-01T00:15:33.898Z,99.90
2019-04-01T00:18:17.623Z,99.90
2019-04-01T00:20:49.653Z,99.90
2019-04-01T00:23:33.095Z,99.90
2019-04-01T00:26:24.557Z,99.90
2019-04-01T00:29:11.733Z,99.90
2019-04-01T00:32:03.020Z,99.90
2019-04-01T00:34:47.320Z,99.90
2019-04-01T00:37:38.627Z,99.90
2019-04-01T00:40:20.868Z,99.90
2019-04-01T00:43:31.054Z,99.90
2019-04-01T00:46:16.794Z,99.90
2019-04-01T00:49:07.920Z,99.90
2019-04-01T00:51:51.440Z,99.90
2019-04-01T00:54:42.668Z,99.90
2019-04-01T00:57:26.918Z,99.90
2019-04-01T01:00:11.034Z,99.90
2019-04-01T01:02:55.391Z,99.90
2019-04-01T01:05:46.712Z,99.90
2019-04-01T01:08:30.332Z,99.90
2019-04-01T01:11:21.453Z,99.90
2019-04-01T01:14:05.430Z,99.90
2019-04-01T01:16:56.603Z,99.90
2019-04-01T01:19:40.391Z,99.90
2019-04-01T01:22:31.578Z,99.90
2019-04-01T01:25:03.475Z,99.90
2019-04-01T01:27:54.614Z,99.90
2019-04-01T01:30:26.628Z,99.90
2019-04-01T01:33:10.652Z,99.90
2019-04-01T01:36:01.749Z,99.90
2019-04-01T01:38:45.821Z,99.90
2019-04-01T01:41:36.917Z,99.90
2019-04-01T01:44:22.801Z,99.90
2019-04-01T01:47:06.891Z,99.90
2019-04-01T01:49:58.103Z,99.90
2019-04-01T01:52:42.139Z,99.90
2019-04-01T01:58:16.292Z,99.90
2019-04-01T02:01:07.396Z,99.90
2019-04-01T02:03:50.828Z,99.90
2019-04-01T02:06:41.953Z,99.90
2019-04-01T02:09:26.203Z,99.90
2019-04-01T02:12:17.197Z,99.90
2019-04-01T02:14:59.585Z,99.90
2019-04-01T02:17:50.733Z,99.90
2019-04-01T02:20:35.612Z,99.90
2019-04-01T02:23:26.734Z,99.90
2019-04-01T02:26:10.886Z,99.90
2019-04-01T02:29:01.991Z,99.90
2019-04-01T02:31:33.992Z,99.90
2019-04-01T02:34:06.094Z,99.90
2019-04-01T02:36:38.035Z,99.90
2019-04-01T02:39:10.881Z,99.90
2019-04-01T02:41:43.366Z,99.90
2019-04-01T02:44:15.751Z,99.90
2019-04-01T02:46:47.997Z,99.90
2019-04-01T02:49:20.202Z,99.90
2019-04-01T02:51:52.071Z,99.90
2019-04-01T02:54:24.159Z,99.90
2019-04-01T02:56:56.119Z,99.90
2019-04-01T02:59:28.121Z,99.90
2019-04-01T03:02:00.233Z,99.90
2019-04-01T03:04:32.320Z,99.90
2019-04-01T03:07:04.426Z,99.90
2019-04-01T03:09:36.429Z,99.90
2019-04-01T03:12:08.458Z,99.90
2019-04-01T03:14:40.431Z,99.90
2019-04-01T03:17:12.690Z,99.90
2019-04-01T03:19:44.910Z,99.90
2019-04-01T03:22:17.168Z,99.90
2019-04-01T03:24:49.195Z,99.90
2019-04-01T03:27:21.300Z,99.90
2019-04-01T03:29:53.345Z,99.90
2019-04-01T03:32:25.225Z,99.90
2019-04-01T03:34:57.205Z,99.90
2019-04-01T03:37:29.204Z,99.90
2019-04-01T03:40:01.493Z,99.90
2019-04-01T03:42:33.339Z,99.90
2019-04-01T03:45:05.769Z,99.90
2019-04-01T03:47:37.774Z,99.90
2019-04-01T03:50:09.860Z,99.90
2019-04-01T03:52:42.097Z,99.90
2019-04-01T03:55:14.067Z,99.90
2019-04-01T03:57:46.190Z,99.90
2019-04-01T04:00:18.197Z,99.90
2019-04-01T04:02:50.767Z,99.90
2019-04-01T04:05:22.904Z,99.90
2019-04-01T04:07:54.989Z,99.90
2019-04-01T04:10:26.888Z,99.90
2019-04-01T04:12:59.802Z,99.90
2019-04-01T04:15:31.727Z,99.90
2019-04-01T04:18:03.599Z,99.90
2019-04-01T04:20:35.462Z,99.90
2019-04-01T04:23:07.532Z,99.90
2019-04-01T04:25:39.632Z,99.90
2019-04-01T04:28:11.644Z,99.90
2019-04-01T04:30:43.713Z,99.90
2019-04-01T04:33:15.679Z,99.90
2019-04-01T04:35:47.712Z,99.90
2019-04-01T04:38:19.812Z,99.90
2019-04-01T04:40:51.814Z,99.90
2019-04-01T04:43:23.934Z,99.90
2019-04-01T04:45:55.869Z,99.90
2019-04-01T04:48:27.691Z,99.90
2019-04-01T04:50:59.620Z,99.90
2019-04-01T04:53:31.646Z,99.90
2019-04-01T04:56:04.756Z,99.90
2019-04-01T04:58:36.850Z,99.90
2019-04-01T05:01:09.024Z,99.90
2019-04-01T05:03:42.401Z,99.90
2019-04-01T05:06:14.740Z,99.90
2019-04-01T05:08:46.753Z,99.90
2019-04-01T05:11:18.852Z,99.90
2019-04-01T05:13:50.983Z,99.90
2019-04-01T05:16:22.817Z,99.90
2019-04-01T05:18:54.847Z,99.90
2019-04-01T05:21:27.240Z,99.90
2019-04-01T05:23:59.531Z,99.90
2019-04-01T05:26:32.817Z,99.90
2019-04-01T05:29:05.359Z,99.90
2019-04-01T05:31:39.422Z,99.90
2019-04-01T05:34:13.993Z,99.90
2019-04-01T05:36:46.671Z,99.90
2019-04-01T05:39:18.847Z,99.90
2019-04-01T05:41:51.304Z,99.90
2019-04-01T05:44:23.760Z,99.90
2019-04-01T05:46:56.014Z,99.90
2019-04-01T05:49:28.742Z,99.90
2019-04-01T05:52:00.798Z,99.90
2019-04-01T05:54:32.850Z,99.90
2019-04-01T05:57:04.753Z,99.90
2019-04-01T05:59:36.813Z,99.90
2019-04-01T06:02:08.970Z,99.90
2019-04-01T06:04:41.103Z,99.90
2019-04-01T06:07:13.239Z,99.90
2019-04-01T06:09:45.484Z,99.90
2019-04-01T06:12:17.437Z,99.90
2019-04-01T06:14:49.410Z,99.90
2019-04-01T06:17:21.468Z,99.90
2019-04-01T06:19:53.692Z,99.90
2019-04-01T06:22:25.756Z,99.90
2019-04-01T06:24:57.941Z,99.90
2019-04-01T06:27:30.685Z,99.90
2019-04-01T06:30:03.279Z,99.90
2019-04-01T06:32:35.583Z,99.90
2019-04-01T06:35:07.962Z,99.90
2019-04-01T06:37:39.981Z,99.90
2019-04-01T06:40:12.081Z,99.90
2019-04-01T06:42:46.852Z,99.90
2019-04-01T06:45:18.890Z,99.90
2019-04-01T06:47:51.203Z,99.90
2019-04-01T06:50:23.271Z,99.90
2019-04-01T06:52:55.430Z,99.90
2019-04-01T06:55:27.368Z,99.90
2019-04-01T06:57:59.368Z,99.90
2019-04-01T07:00:31.798Z,99.90
2019-04-01T07:03:04.090Z,99.90
2019-04-01T07:05:36.971Z,99.90
2019-04-01T07:08:09.051Z,99.90
2019-04-01T07:10:41.184Z,99.90
2019-04-01T07:13:13.281Z,99.90
2019-04-01T07:15:45.472Z,99.90
2019-04-01T07:18:17.736Z,99.90
2019-04-01T07:20:49.714Z,99.90
2019-04-01T07:23:21.679Z,99.90
2019-04-01T07:25:53.889Z,99.90
2019-04-01T07:28:25.899Z,99.90
2019-04-01T07:30:58.251Z,99.90
2019-04-01T07:33:30.354Z,99.90
2019-04-01T07:36:02.414Z,99.90
2019-04-01T07:38:34.768Z,99.90
2019-04-01T07:41:06.821Z,99.90
2019-04-01T07:43:39.114Z,99.90
2019-04-01T07:46:11.050Z,99.90
2019-04-01T07:48:43.258Z,99.90
2019-04-01T07:51:15.624Z,99.90
2019-04-01T07:53:48.939Z,99.90
2019-04-01T07:56:21.157Z,99.90
2019-04-01T07:58:53.084Z,99.90
2019-04-01T08:01:25.006Z,99.90
2019-04-01T08:03:57.930Z,99.90
2019-04-01T08:06:30.177Z,99.90
2019-04-01T08:09:02.314Z,99.90
2019-04-01T08:11:35.238Z,99.90
2019-04-01T08:14:07.382Z,99.90
2019-04-01T08:16:39.464Z,99.90
2019-04-01T08:19:11.458Z,99.90
2019-04-01T08:21:44.753Z,99.90
2019-04-01T08:24:16.823Z,99.90
2019-04-01T08:26:48.829Z,99.90
2019-04-01T08:29:30.168Z,99.90
2019-04-01T08:31:54.598Z,99.90
2019-04-01T08:34:27.008Z,99.90
2019-04-01T08:36:59.160Z,99.90
2019-04-01T08:39:31.218Z,99.90
2019-04-01T08:42:03.954Z,99.90
2019-04-01T08:44:35.997Z,99.90
2019-04-01T08:47:08.063Z,99.90
2019-04-01T08:49:40.155Z,99.90
2019-04-01T08:52:12.307Z,99.90
2019-04-01T08:54:44.275Z,99.90
2019-04-01T08:57:16.836Z,99.90
2019-04-01T08:59:49.148Z,99.90
2019-04-01T09:02:21.107Z,99.90
2019-04-01T09:04:53.204Z,99.90
2019-04-01T09:07:25.213Z,99.90
2019-04-01T09:09:58.552Z,99.90
2019-04-01T09:12:32.211Z,99.90
2019-04-01T09:15:05.454Z,99.90
2019-04-01T09:17:40.193Z,99.90
2019-04-01T09:20:11.737Z,99.90
2019-04-01T09:22:43.715Z,99.90
2019-04-01T09:25:15.804Z,99.90
2019-04-01T09:27:47.917Z,99.90
2019-04-01T09:30:20.290Z,99.90
2019-04-01T09:32:52.381Z,99.90
2019-04-01T09:35:24.265Z,99.90
2019-04-01T09:37:56.277Z,99.90
2019-04-01T09:40:28.172Z,99.90
2019-04-01T09:43:00.067Z,99.90
2019-04-01T09:45:32.114Z,99.90
2019-04-01T09:48:04.108Z,99.90
2019-04-01T09:50:36.073Z,99.90
2019-04-01T09:53:08.173Z,99.90
2019-04-01T09:55:40.276Z,99.90
2019-04-01T09:58:12.125Z,99.90
2019-04-01T10:00:46.157Z,99.90
2019-04-01T10:03:18.292Z,99.90
2019-04-01T10:05:50.157Z,99.90
2019-04-01T10:08:23.277Z,99.90
2019-04-01T10:10:55.279Z,99.90
2019-04-01T10:13:27.279Z,99.90
2019-04-01T10:15:59.627Z,99.90
2019-04-01T10:18:31.508Z,99.90
2019-04-01T10:21:03.588Z,99.90
2019-04-01T10:23:35.616Z,99.90
2019-04-01T10:26:07.585Z,99.90
2019-04-01T10:28:39.596Z,99.90
2019-04-01T10:31:13.088Z,99.90
2019-04-01T10:33:45.108Z,99.90
2019-04-01T10:36:17.078Z,99.90
2019-04-01T10:38:48.980Z,99.90
2019-04-01T10:41:20.975Z,99.60
2019-04-01T10:43:52.865Z,99.40
2019-04-01T10:46:24.832Z,98.70
2019-04-01T10:48:56.954Z,98.90
2019-04-01T10:51:28.970Z,98.40
2019-04-01T10:54:00.952Z,98.40
2019-04-01T10:56:35.848Z,98.20
2019-04-01T10:59:06.725Z,98.10
2019-04-01T11:01:38.790Z,98.20
2019-04-01T11:04:10.732Z,97.40
2019-04-01T11:06:42.738Z,97.30
2019-04-01T11:09:15.005Z,97.40
2019-04-01T11:11:47.068Z,97.30
2019-04-01T11:14:18.933Z,97.70
2019-04-01T11:16:51.132Z,97.60
2019-04-01T11:19:23.182Z,97.50
2019-04-01T11:21:55.184Z,97.30
2019-04-01T11:24:27.223Z,96.90
2019-04-01T11:26:59.395Z,97.00
2019-04-01T11:29:31.348Z,96.60
2019-04-01T11:32:03.414Z,97.00
2019-04-01T11:34:35.519Z,96.80
2019-04-01T11:37:07.526Z,96.80
2019-04-01T11:39:39.525Z,96.90
2019-04-01T11:42:11.552Z,96.80
2019-04-01T11:44:43.572Z,96.10
2019-04-01T11:47:15.531Z,95.90
2019-04-01T11:49:47.538Z,96.20
2019-04-01T11:52:19.840Z,96.10
2019-04-01T11:54:52.006Z,96.50
2019-04-01T11:57:23.977Z,96.30
2019-04-01T11:59:56.017Z,95.80
2019-04-01T12:02:28.080Z,96.00
2019-04-01T12:05:00.068Z,95.60
2019-04-01T12:07:32.264Z,95.60
2019-04-01T12:10:07.373Z,95.40
2019-04-01T12:12:38.511Z,95.10
2019-04-01T12:15:12.362Z,94.70
2019-04-01T12:17:45.035Z,94.90
2019-04-01T12:20:17.081Z,94.90
2019-04-01T12:22:48.939Z,94.60
2019-04-01T12:25:21.101Z,94.70
2019-04-01T12:27:52.991Z,94.20
2019-04-01T12:30:24.966Z,93.90
2019-04-01T12:32:56.939Z,93.70
2019-04-01T12:35:28.849Z,93.90
2019-04-01T12:38:00.985Z,94.00
2019-04-01T12:40:33.264Z,93.90
2019-04-01T12:43:05.308Z,93.60
2019-04-01T12:45:37.355Z,93.50
2019-04-01T12:48:09.376Z,93.10
2019-04-01T12:50:41.441Z,93.10
2019-04-01T12:53:13.484Z,92.50
2019-04-01T12:55:45.344Z,92.90
2019-04-01T12:58:17.880Z,92.60
2019-04-01T13:00:51.658Z,92.00
2019-04-01T13:03:23.791Z,91.80
2019-04-01T13:05:55.782Z,92.20
2019-04-01T13:08:27.871Z,92.60
2019-04-01T13:10:59.945Z,92.40
2019-04-01T13:13:31.946Z,92.50
2019-04-01T13:16:04.064Z,91.80
2019-04-01T13:18:38.180Z,92.00
2019-04-01T13:21:11.006Z,91.30
2019-04-01T13:23:43.126Z,91.60
2019-04-01T13:26:15.183Z,91.00
2019-04-01T13:28:47.016Z,90.70
2019-04-01T13:31:19.070Z,90.10
2019-04-01T13:33:50.975Z,90.10
2019-04-01T13:36:22.914Z,89.30
2019-04-01T13:38:54.979Z,89.80
2019-04-01T13:41:41.740Z,90.20
2019-04-01T13:44:02.009Z,87.80
2019-04-01T13:46:34.053Z,88.50
2019-04-01T13:49:06.054Z,88.80
2019-04-01T13:51:38.093Z,88.30
2019-04-01T13:54:11.466Z,88.30
2019-04-01T13:56:43.820Z,88.70
2019-04-01T13:59:17.577Z,88.70
2019-04-01T14:01:49.792Z,88.20
2019-04-01T14:04:21.783Z,88.00
2019-04-01T14:06:53.978Z,88.10
2019-04-01T14:09:26.006Z,88.50
2019-04-01T14:11:57.899Z,87.30
2019-04-01T14:14:29.770Z,87.50
2019-04-01T14:17:01.766Z,87.30
2019-04-01T14:19:33.665Z,86.60
2019-04-01T14:22:05.795Z,87.10
2019-04-01T14:24:37.678Z,88.00
2019-04-01T14:27:10.129Z,87.90
2019-04-01T14:29:42.343Z,88.30
2019-04-01T14:32:18.129Z,89.00
2019-04-01T14:34:50.515Z,89.50
2019-04-01T14:37:26.193Z,86.90
2019-04-01T14:39:57.018Z,86.80
2019-04-01T14:42:29.086Z,86.60
2019-04-01T14:45:02.297Z,87.90
2019-04-01T14:47:34.438Z,88.20
2019-04-01T14:50:08.171Z,88.70
2019-04-01T14:52:41.408Z,88.30
2019-04-01T14:55:14.943Z,87.90
2019-04-01T14:57:47.043Z,88.90
2019-04-01T15:00:23.612Z,88.50
2019-04-01T15:02:55.977Z,87.60
2019-04-01T15:05:27.991Z,88.10
2019-04-01T15:08:00.239Z,87.20
2019-04-01T15:10:32.276Z,87.30
2019-04-01T15:13:06.095Z,87.00
2019-04-01T15:15:38.134Z,87.00
2019-04-01T15:18:10.136Z,87.10
2019-04-01T15:20:42.054Z,87.00
2019-04-01T15:23:14.020Z,87.40
2019-04-01T15:25:46.215Z,88.10
2019-04-01T15:28:18.156Z,87.70
2019-04-01T15:30:50.261Z,86.70
2019-04-01T15:33:22.118Z,87.10
2019-04-01T15:35:54.171Z,87.50
2019-04-01T15:38:26.123Z,88.30
2019-04-01T15:40:58.441Z,87.30
2019-04-01T15:43:30.977Z,87.40
2019-04-01T15:46:04.203Z,86.90
2019-04-01T15:48:36.755Z,87.50
2019-04-01T15:51:09.046Z,87.80
2019-04-01T15:53:41.376Z,87.50
2019-04-01T15:56:13.366Z,88.10
2019-04-01T15:58:45.452Z,87.70
2019-04-01T16:01:18.534Z,87.80
2019-04-01T16:03:50.855Z,87.40
2019-04-01T16:06:27.008Z,87.00
2019-04-01T16:08:58.839Z,87.50
2019-04-01T16:11:30.856Z,88.30
2019-04-01T16:14:02.901Z,88.30
2019-04-01T16:16:36.074Z,88.40
2019-04-01T16:19:08.765Z,88.80
2019-04-01T16:21:40.940Z,88.20
2019-04-01T16:24:12.899Z,87.70
2019-04-01T16:26:44.941Z,87.70
2019-04-01T16:29:17.078Z,88.80
2019-04-01T16:31:49.084Z,88.80
2019-04-01T16:34:21.270Z,88.60
2019-04-01T16:36:53.595Z,87.70
2019-04-01T16:39:26.056Z,88.10
2019-04-01T16:41:58.205Z,88.90
2019-04-01T16:44:30.291Z,88.90
2019-04-01T16:47:03.371Z,88.70
2019-04-01T16:49:36.253Z,88.80
2019-04-01T16:52:09.446Z,88.10
2019-04-01T16:54:41.409Z,88.50
2019-04-01T16:57:13.479Z,89.80
2019-04-01T16:59:45.529Z,88.60
2019-04-01T17:02:18.561Z,89.30
2019-04-01T17:04:50.828Z,88.50
2019-04-01T17:07:22.832Z,88.80
2019-04-01T17:09:58.044Z,89.00
2019-04-01T17:12:28.572Z,88.50
2019-04-01T17:15:03.320Z,88.50
2019-04-01T17:17:35.543Z,88.40
2019-04-01T17:20:08.419Z,88.60
2019-04-01T17:22:40.640Z,88.90
2019-04-01T17:25:12.833Z,88.90
2019-04-01T17:27:44.991Z,88.80
2019-04-01T17:30:17.203Z,89.10
2019-04-01T17:32:49.059Z,89.40
2019-04-01T17:35:21.026Z,89.60
2019-04-01T17:37:53.077Z,90.00
2019-04-01T17:40:25.131Z,89.80
2019-04-01T17:42:57.237Z,90.00
2019-04-01T17:45:36.692Z,90.10
2019-04-01T17:48:09.074Z,90.00
2019-04-01T17:50:41.111Z,90.10
2019-04-01T17:53:14.141Z,89.90
2019-04-01T17:55:48.013Z,90.10
2019-04-01T17:58:19.996Z,89.80
2019-04-01T18:00:57.441Z,90.00
2019-04-01T18:03:29.546Z,90.00
2019-04-01T18:06:01.589Z,90.40
2019-04-01T18:08:34.241Z,90.30
2019-04-01T18:11:06.543Z,90.20
2019-04-01T18:13:38.672Z,90.10
2019-04-01T18:16:10.509Z,90.20
2019-04-01T18:18:42.592Z,90.30
2019-04-01T18:21:14.615Z,90.10
2019-04-01T18:23:48.624Z,90.20
2019-04-01T18:26:21.919Z,90.20
2019-04-01T18:28:53.927Z,90.20
2019-04-01T18:31:26.078Z,90.20
2019-04-01T18:33:59.268Z,90.20
2019-04-01T18:36:34.802Z,90.40
2019-04-01T18:39:09.674Z,90.40
2019-04-01T18:41:41.701Z,90.50
2019-04-01T18:44:13.764Z,90.50
2019-04-01T18:46:45.658Z,90.60
2019-04-01T18:49:17.671Z,90.80
2019-04-01T18:51:50.455Z,90.80
2019-04-01T18:54:22.623Z,90.90
2019-04-01T18:56:58.138Z,90.90
2019-04-01T18:59:30.396Z,90.80
2019-04-01T19:02:02.346Z,90.70
2019-04-01T19:04:34.404Z,90.80
2019-04-01T19:07:06.545Z,91.00
2019-04-01T19:09:38.629Z,90.80
2019-04-01T19:12:11.719Z,90.80
2019-04-01T19:14:43.716Z,90.80
2019-04-01T19:17:15.783Z,90.90
2019-04-01T19:19:48.775Z,90.80
2019-04-01T19:22:20.722Z,90.90
2019-04-01T19:24:53.958Z,90.90
2019-04-01T19:27:25.898Z,90.90
2019-04-01T19:29:58.092Z,90.90
2019-04-01T19:32:30.078Z,91.10
2019-04-01T19:35:02.202Z,91.00
2019-04-01T19:37:34.226Z,91.20
2019-04-01T19:40:08.013Z,91.30
2019-04-01T19:42:40.172Z,91.30
2019-04-01T19:45:14.324Z,91.30
2019-04-01T19:47:46.451Z,91.50
2019-04-01T19:50:19.210Z,91.50
2019-04-01T19:52:51.338Z,91.50
2019-04-01T19:55:23.543Z,91.60
2019-04-01T19:57:57.887Z,91.70
2019-04-01T20:00:30.776Z,91.80
2019-04-01T20:03:02.966Z,92.00
2019-04-01T20:05:35.092Z,92.20
2019-04-01T20:08:07.306Z,92.50
2019-04-01T20:10:39.619Z,92.60
2019-04-01T20:13:11.692Z,92.50
2019-04-01T20:15:43.523Z,92.60
2019-04-01T20:18:15.828Z,92.60
2019-04-01T20:20:48.017Z,92.80
2019-04-01T20:23:20.433Z,92.80
2019-04-01T20:25:52.422Z,93.00
2019-04-01T20:28:24.364Z,93.00
2019-04-01T20:30:56.689Z,93.00
2019-04-01T20:33:31.637Z,93.10
2019-04-01T20:36:03.501Z,93.20
2019-04-01T20:38:35.590Z,93.20
2019-04-01T20:41:07.548Z,93.40
2019-04-01T20:43:39.669Z,93.50
2019-04-01T20:46:11.754Z,93.30
2019-04-01T20:48:43.704Z,93.60
2019-04-01T20:51:15.651Z,93.50
2019-04-01T20:53:51.149Z,93.80
2019-04-01T20:56:21.891Z,94.20
2019-04-01T20:58:55.897Z,94.20
2019-04-01T21:01:27.955Z,94.50
2019-04-01T21:04:00.061Z,94.60
2019-04-01T21:06:32.437Z,94.70
2019-04-01T21:09:07.883Z,95.20
2019-04-01T21:11:40.060Z,95.10
2019-04-01T21:14:12.540Z,95.20
2019-04-01T21:16:44.509Z,95.30
2019-04-01T21:19:18.032Z,95.50
2019-04-01T21:21:50.145Z,95.60
2019-04-01T21:24:22.426Z,95.70
2019-04-01T21:26:55.091Z,95.60
2019-04-01T21:29:28.098Z,95.50
2019-04-01T21:32:01.558Z,95.50
2019-04-01T21:34:33.412Z,95.70
2019-04-01T21:37:06.257Z,95.70
2019-04-01T21:39:38.849Z,95.80
2019-04-01T21:42:11.045Z,95.90
2019-04-01T21:44:43.298Z,95.90
2019-04-01T21:47:15.650Z,96.00
2019-04-01T21:49:47.739Z,96.20
2019-04-01T21:52:19.737Z,96.30
2019-04-01T21:54:51.777Z,96.50
2019-04-01T21:57:23.953Z,96.20
2019-04-01T21:59:55.928Z,96.30
2019-04-01T22:02:35.720Z,96.30
2019-04-01T22:05:02.772Z,96.40
2019-04-01T22:07:34.848Z,96.50
2019-04-01T22:10:07.499Z,96.50
2019-04-01T22:12:39.400Z,96.60
2019-04-01T22:15:11.519Z,96.70
2019-04-01T22:17:43.473Z,96.70
2019-04-01T22:20:15.444Z,96.70
2019-04-01T22:22:47.489Z,96.80
2019-04-01T22:25:19.491Z,97.00
2019-04-01T22:27:52.384Z,96.80
2019-04-01T22:30:25.265Z,96.80
2019-04-01T22:32:57.151Z,96.90
2019-04-01T22:35:38.033Z,97.00
2019-04-01T22:38:03.508Z,96.90
2019-04-01T22:40:35.516Z,97.00
2019-04-01T22:43:07.540Z,97.10
2019-04-01T22:45:39.600Z,97.20
2019-04-01T22:48:11.608Z,97.40
2019-04-01T22:50:44.066Z,97.40
2019-04-01T22:53:16.126Z,97.50
2019-04-01T22:55:48.211Z,97.50
2019-04-01T22:58:22.003Z,97.50
2019-04-01T23:00:54.126Z,97.60
2019-04-01T23:03:26.547Z,97.60
2019-04-01T23:05:58.612Z,97.50
2019-04-01T23:08:31.172Z,97.60
2019-04-01T23:11:03.766Z,97.70
2019-04-01T23:13:35.788Z,97.80
2019-04-01T23:16:07.593Z,97.80
2019-04-01T23:18:39.684Z,97.70
2019-04-01T23:21:11.557Z,97.80
2019-04-01T23:23:43.732Z,97.80
2019-04-01T23:26:15.800Z,97.80
2019-04-01T23:28:47.823Z,97.80
2019-04-01T23:31:19.733Z,97.90
2019-04-01T23:33:51.611Z,97.90
2019-04-01T23:36:23.524Z,97.90
2019-04-01T23:38:56.460Z,98.00
2019-04-01T23:41:29.254Z,97.90
2019-04-01T23:44:03.915Z,97.90
2019-04-01T23:46:35.902Z,98.00
2019-04-01T23:49:09.078Z,98.20
2019-04-01T23:51:41.122Z,98.10
2019-04-01T23:54:13.433Z,97.90
2019-04-01T23:56:45.433Z,98.00
2019-04-01T23:59:19.196Z,98.00
